Time;durP1;ratioP1;P1;durP2;ratioP2;P2;SDS_P1;SDS_P2;PMS_P1;PMS_P2;Temp;Humidity;BMP_temperature;BMP_pressure;BME280_temperature;BME280_humidity;BME280_pressure;Samples;Min_cycle;Max_cycle;Signal;HPM_P1;HPM_P2
2023/04/17 00:02:01;;;;;;;42.67;21.25;;;;;;;;;;5066611;28;20053;-60
2023/04/17 00:04:27;;;;;;;41.20;22.63;;;;;;;;;;5072281;28;20106;-61
2023/04/17 00:06:54;;;;;;;40.45;21.65;;;;;;;;;;5063825;28;20061;-61
2023/04/17 00:09:20;;;;;;;41.00;23.50;;;;;;;;;;5062075;28;20141;-63
2023/04/17 00:11:47;;;;;;;38.42;20.55;;;;;;;;;;5065415;28;20080;-61
2023/04/17 00:14:13;;;;;;;39.40;20.88;;;;;;;;;;5071451;28;20148;-61
2023/04/17 00:16:40;;;;;;;40.17;20.27;;;;;;;;;;5079994;28;20523;-62
2023/04/17 00:19:06;;;;;;;38.40;20.98;;;;;;;;;;5071007;28;20060;-61
2023/04/17 00:21:32;;;;;;;37.65;21.48;;;;;;;;;;5065074;28;20063;-61
2023/04/17 00:24:00;;;;;;;35.30;20.75;;;;;;;;;;5085395;28;20052;-62
2023/04/17 00:26:26;;;;;;;32.35;20.38;;;;;;;;;;5075757;28;20056;-63
2023/04/17 00:28:52;;;;;;;36.67;19.80;;;;;;;;;;5084638;28;20056;-61
2023/04/17 00:31:19;;;;;;;40.55;20.75;;;;;;;;;;5068149;28;20057;-62
2023/04/17 00:33:45;;;;;;;35.72;20.70;;;;;;;;;;5069681;28;20214;-63
2023/04/17 00:36:12;;;;;;;38.15;20.55;;;;;;;;;;5080969;28;20439;-61
2023/04/17 00:38:39;;;;;;;40.80;22.67;;;;;;;;;;5065382;28;20053;-61
2023/04/17 00:41:05;;;;;;;38.92;21.23;;;;;;;;;;5073238;28;20065;-62
2023/04/17 00:43:31;;;;;;;43.13;20.73;;;;;;;;;;5085566;28;20317;-59
2023/04/17 00:45:57;;;;;;;35.92;20.40;;;;;;;;;;5084161;28;20056;-61
2023/04/17 00:48:25;;;;;;;32.83;19.30;;;;;;;;;;5083383;28;20519;-60
2023/04/17 00:50:51;;;;;;;37.15;19.40;;;;;;;;;;5084946;28;20048;-62
2023/04/17 00:53:18;;;;;;;33.35;18.98;;;;;;;;;;5084203;28;20057;-61
2023/04/17 00:55:45;;;;;;;28.38;18.10;;;;;;;;;;5082747;28;20060;-60
2023/04/17 00:58:12;;;;;;;30.15;16.25;;;;;;;;;;5083464;28;20064;-61
2023/04/17 01:00:38;;;;;;;26.20;16.35;;;;;;;;;;5085476;28;20148;-61
2023/04/17 01:03:04;;;;;;;27.73;16.17;;;;;;;;;;5085171;28;20135;-61
2023/04/17 01:05:34;;;;;;;28.80;16.00;;;;;;;;;;5069446;28;20745;-61
2023/04/17 01:08:00;;;;;;;26.42;16.42;;;;;;;;;;5078837;28;20581;-61
2023/04/17 01:10:26;;;;;;;28.55;15.63;;;;;;;;;;5085685;28;20045;-61
2023/04/17 01:13:02;;;;;;;23.67;15.07;;;;;;;;;;5074681;28;20067;-60
2023/04/17 01:15:29;;;;;;;23.25;14.98;;;;;;;;;;5081358;28;20056;-62
2023/04/17 01:17:56;;;;;;;29.50;15.40;;;;;;;;;;5082685;28;20048;-62
2023/04/17 01:20:24;;;;;;;23.63;14.57;;;;;;;;;;5078883;28;20057;-61
2023/04/17 01:22:50;;;;;;;24.00;14.65;;;;;;;;;;5073862;28;20507;-62
2023/04/17 01:25:17;;;;;;;24.55;14.98;;;;;;;;;;5084651;28;20083;-61
2023/04/17 01:27:44;;;;;;;25.27;15.15;;;;;;;;;;5070664;28;20582;-61
2023/04/17 01:30:10;;;;;;;26.02;15.15;;;;;;;;;;5071060;28;20152;-62
2023/04/17 01:32:37;;;;;;;24.20;13.75;;;;;;;;;;5080491;28;20053;-62
2023/04/17 01:35:04;;;;;;;24.02;13.90;;;;;;;;;;5087148;28;20068;-61
2023/04/17 01:37:30;;;;;;;19.23;12.73;;;;;;;;;;5085519;28;20053;-61
2023/04/17 01:39:57;;;;;;;22.30;13.00;;;;;;;;;;5077361;28;20085;-62
2023/04/17 01:42:24;;;;;;;20.17;12.80;;;;;;;;;;5076901;28;20487;-62
2023/04/17 01:44:50;;;;;;;24.63;13.75;;;;;;;;;;5079711;28;20459;-61
2023/04/17 01:47:16;;;;;;;22.85;13.73;;;;;;;;;;5072475;28;20056;-62
2023/04/17 01:49:43;;;;;;;20.02;12.68;;;;;;;;;;5088326;28;20052;-60
2023/04/17 01:52:09;;;;;;;22.80;13.23;;;;;;;;;;5088027;28;20518;-60
2023/04/17 01:54:35;;;;;;;21.17;13.85;;;;;;;;;;5077920;28;20060;-60
2023/04/17 01:57:02;;;;;;;24.88;14.15;;;;;;;;;;5067731;28;20518;-61
2023/04/17 01:59:28;;;;;;;24.98;15.35;;;;;;;;;;5087886;28;20062;-61
2023/04/17 02:01:55;;;;;;;24.13;14.27;;;;;;;;;;5085265;28;20060;-61
2023/04/17 02:04:22;;;;;;;21.10;13.45;;;;;;;;;;5078845;28;20083;-61
2023/04/17 02:06:49;;;;;;;23.75;14.38;;;;;;;;;;5069584;28;20057;-61
2023/04/17 02:09:15;;;;;;;25.73;15.55;;;;;;;;;;5081111;28;20049;-61
2023/04/17 02:11:41;;;;;;;23.58;13.80;;;;;;;;;;5074989;28;20846;-61
2023/04/17 02:14:08;;;;;;;25.50;13.75;;;;;;;;;;5080054;28;20061;-62
2023/04/17 02:16:36;;;;;;;24.13;14.93;;;;;;;;;;5087125;28;20483;-62
2023/04/17 02:19:02;;;;;;;22.63;13.32;;;;;;;;;;5086439;28;20091;-62
2023/04/17 02:21:29;;;;;;;23.20;14.30;;;;;;;;;;5077642;28;20057;-61
2023/04/17 02:23:56;;;;;;;20.77;13.68;;;;;;;;;;5084165;28;20059;-61
2023/04/17 02:26:22;;;;;;;23.25;14.20;;;;;;;;;;5087631;28;20056;-61
2023/04/17 02:28:48;;;;;;;19.92;13.15;;;;;;;;;;5071409;28;20527;-60
2023/04/17 02:31:15;;;;;;;21.80;13.93;;;;;;;;;;5087863;28;20052;-61
2023/04/17 02:33:41;;;;;;;23.08;13.90;;;;;;;;;;5073407;28;20056;-61
2023/04/17 02:36:08;;;;;;;27.55;15.57;;;;;;;;;;5071742;28;20045;-62
2023/04/17 02:38:36;;;;;;;23.98;14.13;;;;;;;;;;5053263;28;20136;-61
2023/04/17 02:41:04;;;;;;;26.65;15.20;;;;;;;;;;5063320;28;20057;-61
2023/04/17 02:43:30;;;;;;;20.65;14.20;;;;;;;;;;5077552;28;20047;-62
2023/04/17 02:45:56;;;;;;;24.67;14.85;;;;;;;;;;5066114;28;20139;-62
2023/04/17 02:48:23;;;;;;;25.80;15.57;;;;;;;;;;5080282;28;20540;-60
2023/04/17 02:50:49;;;;;;;22.02;14.55;;;;;;;;;;5075925;28;20059;-62
2023/04/17 02:53:16;;;;;;;23.55;15.35;;;;;;;;;;5086916;28;20083;-61
2023/04/17 02:55:42;;;;;;;25.00;15.55;;;;;;;;;;5083122;28;20167;-61
2023/04/17 02:58:08;;;;;;;24.73;15.80;;;;;;;;;;5084150;28;20048;-62
2023/04/17 03:00:35;;;;;;;27.77;16.40;;;;;;;;;;5080305;28;20063;-61
2023/04/17 03:03:02;;;;;;;24.73;14.63;;;;;;;;;;5067393;28;20585;-61
2023/04/17 03:05:29;;;;;;;25.05;15.05;;;;;;;;;;5069783;28;20198;-61
2023/04/17 03:07:57;;;;;;;25.75;16.33;;;;;;;;;;5084952;28;20101;-61
2023/04/17 03:10:23;;;;;;;28.30;16.48;;;;;;;;;;5087154;28;20062;-61
2023/04/17 03:12:49;;;;;;;26.08;16.13;;;;;;;;;;5069830;28;20085;-61
2023/04/17 03:15:16;;;;;;;26.05;16.40;;;;;;;;;;5067006;28;20132;-61
2023/04/17 03:17:43;;;;;;;26.35;15.18;;;;;;;;;;5071689;28;20059;-61
2023/04/17 03:20:09;;;;;;;30.35;16.25;;;;;;;;;;5087080;28;20057;-61
2023/04/17 03:22:36;;;;;;;26.98;16.15;;;;;;;;;;5086749;28;20519;-60
2023/04/17 03:25:02;;;;;;;24.40;15.48;;;;;;;;;;5078841;28;20083;-61
2023/04/17 03:27:29;;;;;;;29.80;18.13;;;;;;;;;;5074573;28;20060;-61
2023/04/17 03:29:56;;;;;;;32.20;18.65;;;;;;;;;;5072999;28;20119;-61
2023/04/17 03:32:22;;;;;;;29.35;18.13;;;;;;;;;;5066822;28;20076;-61
2023/04/17 03:34:48;;;;;;;29.17;17.48;;;;;;;;;;5069325;28;20107;-61
2023/04/17 03:37:15;;;;;;;29.55;18.38;;;;;;;;;;5072197;28;20055;-62
2023/04/17 03:39:41;;;;;;;31.98;18.30;;;;;;;;;;5072606;28;20526;-61
2023/04/17 03:42:10;;;;;;;32.00;18.58;;;;;;;;;;5066202;28;20471;-61
2023/04/17 03:44:37;;;;;;;29.45;16.65;;;;;;;;;;5079805;28;20052;-61
2023/04/17 03:47:03;;;;;;;27.02;16.33;;;;;;;;;;5071433;28;20055;-61
2023/04/17 03:49:29;;;;;;;27.13;16.67;;;;;;;;;;5064766;28;20094;-60
2023/04/17 03:51:56;;;;;;;23.70;15.32;;;;;;;;;;5065100;28;20140;-61
2023/04/17 03:54:22;;;;;;;24.85;15.10;;;;;;;;;;5057709;28;20108;-61
2023/04/17 03:56:49;;;;;;;23.45;15.30;;;;;;;;;;5075192;28;20056;-62
2023/04/17 03:59:15;;;;;;;23.67;15.45;;;;;;;;;;5066268;28;20055;-61
2023/04/17 04:01:41;;;;;;;27.50;15.40;;;;;;;;;;5064645;28;20931;-62
2023/04/17 04:04:11;;;;;;;26.83;16.30;;;;;;;;;;5060428;28;20423;-61
2023/04/17 04:06:38;;;;;;;30.20;16.02;;;;;;;;;;5066258;28;20083;-60
2023/04/17 04:09:04;;;;;;;30.27;17.17;;;;;;;;;;5081631;28;20118;-61
2023/04/17 04:11:31;;;;;;;26.83;17.50;;;;;;;;;;5060200;28;20053;-62
2023/04/17 04:13:57;;;;;;;26.38;16.00;;;;;;;;;;5058735;28;20515;-61
2023/04/17 04:16:23;;;;;;;28.92;16.75;;;;;;;;;;5060210;28;20536;-62
2023/04/17 04:18:50;;;;;;;24.13;16.15;;;;;;;;;;5074611;28;20526;-62
2023/04/17 04:21:16;;;;;;;24.67;16.65;;;;;;;;;;5064134;28;20741;-60
2023/04/17 04:23:44;;;;;;;23.98;15.65;;;;;;;;;;5059449;28;20453;-61
2023/04/17 04:26:10;;;;;;;24.40;16.17;;;;;;;;;;5068804;28;20060;-61
2023/04/17 04:28:37;;;;;;;26.98;17.17;;;;;;;;;;5062329;28;20400;-62
2023/04/17 04:31:04;;;;;;;33.65;17.23;;;;;;;;;;5062166;28;20064;-63
2023/04/17 04:33:30;;;;;;;28.17;16.42;;;;;;;;;;5051427;28;20057;-62
2023/04/17 04:35:59;;;;;;;26.98;16.60;;;;;;;;;;5055159;28;20060;-62
2023/04/17 04:38:31;;;;;;;28.85;17.20;;;;;;;;;;5059552;28;20531;-62
2023/04/17 04:41:04;;;;;;;29.58;17.52;;;;;;;;;;5077738;28;20045;-62
2023/04/17 04:43:32;;;;;;;32.40;19.70;;;;;;;;;;5052424;28;20116;-61
2023/04/17 04:45:58;;;;;;;30.23;18.20;;;;;;;;;;5064759;28;20072;-62
2023/04/17 04:48:25;;;;;;;32.10;19.55;;;;;;;;;;5069984;28;20132;-64
2023/04/17 04:50:51;;;;;;;30.50;18.45;;;;;;;;;;5054478;28;20053;-61
2023/04/17 04:53:17;;;;;;;31.63;18.02;;;;;;;;;;5065836;28;20061;-64
2023/04/17 04:55:44;;;;;;;29.73;18.40;;;;;;;;;;5064330;28;20566;-60
2023/04/17 04:58:10;;;;;;;27.92;16.95;;;;;;;;;;5060609;28;20146;-63
2023/04/17 05:00:37;;;;;;;30.30;18.30;;;;;;;;;;5063324;28;20136;-62
2023/04/17 05:03:03;;;;;;;30.52;17.77;;;;;;;;;;5063589;28;20102;-62
2023/04/17 05:05:30;;;;;;;31.55;19.15;;;;;;;;;;5081156;28;20110;-64
2023/04/17 05:07:57;;;;;;;35.28;20.95;;;;;;;;;;5073740;28;20128;-62
2023/04/17 05:10:23;;;;;;;33.97;19.75;;;;;;;;;;5070713;28;20060;-63
2023/04/17 05:12:50;;;;;;;38.03;19.27;;;;;;;;;;5068903;28;20057;-62
2023/04/17 05:15:16;;;;;;;33.85;20.10;;;;;;;;;;5073471;28;20051;-61
2023/04/17 05:17:43;;;;;;;40.03;19.40;;;;;;;;;;5088848;28;20064;-61
2023/04/17 05:20:11;;;;;;;31.85;18.13;;;;;;;;;;5077350;28;20570;-61
2023/04/17 05:22:37;;;;;;;33.05;19.27;;;;;;;;;;5089426;28;20052;-62
2023/04/17 05:25:04;;;;;;;33.92;19.02;;;;;;;;;;5087374;28;20168;-61
2023/04/17 05:27:30;;;;;;;32.42;18.00;;;;;;;;;;5086703;28;20053;-61
2023/04/17 05:29:56;;;;;;;32.10;18.90;;;;;;;;;;5087633;28;20053;-61
2023/04/17 05:32:22;;;;;;;36.85;20.08;;;;;;;;;;5089307;28;20387;-63
2023/04/17 05:34:49;;;;;;;36.00;20.20;;;;;;;;;;5085576;28;20053;-64
2023/04/17 05:37:16;;;;;;;33.75;18.85;;;;;;;;;;5088205;28;20569;-61
2023/04/17 05:39:42;;;;;;;33.15;19.05;;;;;;;;;;5069524;28;20818;-60
2023/04/17 05:42:08;;;;;;;33.10;18.70;;;;;;;;;;5066703;28;20613;-62
2023/04/17 05:44:35;;;;;;;35.35;20.33;;;;;;;;;;5065470;28;20538;-61
2023/04/17 05:47:02;;;;;;;37.55;19.83;;;;;;;;;;5065599;28;20507;-63
2023/04/17 05:49:28;;;;;;;35.92;20.75;;;;;;;;;;5076433;28;20083;-60
2023/04/17 05:51:55;;;;;;;37.28;20.83;;;;;;;;;;5086212;28;20063;-63
2023/04/17 05:54:21;;;;;;;39.17;20.42;;;;;;;;;;5060880;28;20149;-63
2023/04/17 05:56:48;;;;;;;34.90;19.10;;;;;;;;;;5067537;28;20140;-62
2023/04/17 05:59:15;;;;;;;33.75;19.00;;;;;;;;;;5068968;28;20057;-63
2023/04/17 06:01:42;;;;;;;36.35;20.02;;;;;;;;;;5066901;28;20059;-63
2023/04/17 06:04:08;;;;;;;38.60;21.05;;;;;;;;;;5073551;28;20490;-62
2023/04/17 06:06:35;;;;;;;40.67;20.92;;;;;;;;;;5077096;28;20144;-62
2023/04/17 06:09:03;;;;;;;33.00;18.35;;;;;;;;;;5064408;28;20572;-63
2023/04/17 06:11:30;;;;;;;36.05;20.73;;;;;;;;;;5077173;28;20136;-63
2023/04/17 06:13:57;;;;;;;34.30;18.75;;;;;;;;;;5076240;28;20060;-63
2023/04/17 06:16:23;;;;;;;32.60;19.85;;;;;;;;;;5065701;28;20052;-63
2023/04/17 06:18:50;;;;;;;31.48;19.48;;;;;;;;;;5074354;28;20056;-62
2023/04/17 06:21:16;;;;;;;37.28;19.90;;;;;;;;;;5069821;28;20063;-63
2023/04/17 06:23:42;;;;;;;33.70;18.58;;;;;;;;;;5064976;28;20060;-62
2023/04/17 06:26:11;;;;;;;36.97;19.80;;;;;;;;;;5071532;28;20701;-62
2023/04/17 06:28:37;;;;;;;34.80;20.25;;;;;;;;;;5078201;28;20169;-60
2023/04/17 06:31:03;;;;;;;35.97;20.08;;;;;;;;;;5072465;28;20353;-61
2023/04/17 06:33:30;;;;;;;39.50;20.33;;;;;;;;;;5065057;28;20115;-61
2023/04/17 06:35:56;;;;;;;39.72;20.70;;;;;;;;;;5061713;28;20546;-60
2023/04/17 06:38:22;;;;;;;35.92;19.98;;;;;;;;;;5064745;28;20056;-60
2023/04/17 06:40:49;;;;;;;37.90;20.92;;;;;;;;;;5069499;28;20124;-61
2023/04/17 06:43:17;;;;;;;35.53;21.60;;;;;;;;;;5078236;28;20082;-61
2023/04/17 06:45:44;;;;;;;44.15;22.27;;;;;;;;;;5075143;28;20057;-61
2023/04/17 06:48:10;;;;;;;40.83;21.42;;;;;;;;;;5064705;28;20049;-60
2023/04/17 06:50:36;;;;;;;40.60;22.38;;;;;;;;;;5067311;28;20517;-60
2023/04/17 06:53:03;;;;;;;37.40;21.13;;;;;;;;;;5074834;28;20526;-61
2023/04/17 06:55:30;;;;;;;38.17;21.85;;;;;;;;;;5070836;28;20494;-61
2023/04/17 06:57:56;;;;;;;40.90;21.85;;;;;;;;;;5082795;28;20135;-61
2023/04/17 07:00:22;;;;;;;38.97;21.48;;;;;;;;;;5063621;28;20532;-61
2023/04/17 07:02:49;;;;;;;38.72;22.63;;;;;;;;;;5085224;28;20067;-60
2023/04/17 07:05:16;;;;;;;42.17;21.88;;;;;;;;;;5083193;28;20514;-61
2023/04/17 07:07:42;;;;;;;38.08;22.05;;;;;;;;;;5080212;28;20114;-65
2023/04/17 07:10:08;;;;;;;41.38;21.33;;;;;;;;;;5076963;28;20056;-60
2023/04/17 07:12:35;;;;;;;40.25;21.95;;;;;;;;;;5064742;28;20503;-61
2023/04/17 07:15:02;;;;;;;41.40;22.90;;;;;;;;;;5066460;28;20084;-59
2023/04/17 07:17:28;;;;;;;38.65;22.23;;;;;;;;;;5063020;28;20049;-61
2023/04/17 07:19:55;;;;;;;42.83;20.77;;;;;;;;;;5069891;28;20136;-63
2023/04/17 07:22:21;;;;;;;36.65;20.58;;;;;;;;;;5059181;28;20057;-63
2023/04/17 07:24:50;;;;;;;41.95;22.23;;;;;;;;;;5060690;28;20091;-62
2023/04/17 07:27:16;;;;;;;42.50;21.23;;;;;;;;;;5074452;28;20138;-61
2023/04/17 07:29:45;;;;;;;41.28;20.85;;;;;;;;;;5070878;28;20475;-61
2023/04/17 07:32:12;;;;;;;40.30;21.83;;;;;;;;;;5065158;28;20049;-61
2023/04/17 07:34:40;;;;;;;42.22;22.48;;;;;;;;;;5064580;28;20116;-61
2023/04/17 07:37:07;;;;;;;40.85;22.30;;;;;;;;;;5062226;28;20060;-60
2023/04/17 07:39:33;;;;;;;38.58;19.85;;;;;;;;;;5083364;28;20056;-62
2023/04/17 07:42:05;;;;;;;39.85;20.58;;;;;;;;;;5078983;28;20141;-61
2023/04/17 07:44:31;;;;;;;39.35;20.85;;;;;;;;;;5057215;28;20058;-61
2023/04/17 07:46:58;;;;;;;40.40;21.63;;;;;;;;;;5071047;28;20526;-64
2023/04/17 07:49:24;;;;;;;39.15;21.00;;;;;;;;;;5082872;28;20048;-62
2023/04/17 07:51:51;;;;;;;43.70;22.95;;;;;;;;;;5063428;28;20076;-61
2023/04/17 07:54:17;;;;;;;41.90;21.00;;;;;;;;;;5064632;28;20478;-63
2023/04/17 07:56:45;;;;;;;41.10;19.42;;;;;;;;;;5060286;28;20565;-62
2023/04/17 07:59:12;;;;;;;34.85;20.30;;;;;;;;;;5069510;28;20975;-61
2023/04/17 08:01:39;;;;;;;38.35;20.80;;;;;;;;;;5068671;28;20044;-63
2023/04/17 08:04:06;;;;;;;43.53;20.63;;;;;;;;;;5063202;28;20064;-63
2023/04/17 08:06:33;;;;;;;31.73;19.45;;;;;;;;;;5072994;28;20585;-63
2023/04/17 08:09:01;;;;;;;35.53;18.67;;;;;;;;;;5073911;28;20100;-62
2023/04/17 08:11:27;;;;;;;31.58;18.45;;;;;;;;;;5071304;28;20519;-61
2023/04/17 08:13:54;;;;;;;33.80;18.63;;;;;;;;;;5072375;28;20061;-63
2023/04/17 08:16:20;;;;;;;32.55;19.52;;;;;;;;;;5060788;28;20060;-62
2023/04/17 08:18:47;;;;;;;32.53;19.13;;;;;;;;;;5061865;28;20126;-62
2023/04/17 08:21:13;;;;;;;33.38;18.90;;;;;;;;;;5062554;28;20053;-62
2023/04/17 08:23:40;;;;;;;33.10;19.58;;;;;;;;;;5080857;28;20092;-63
2023/04/17 08:26:07;;;;;;;28.63;19.23;;;;;;;;;;5075566;28;20053;-63
2023/04/17 08:28:33;;;;;;;29.35;17.42;;;;;;;;;;5073626;28;20057;-63
2023/04/17 08:31:00;;;;;;;28.40;18.17;;;;;;;;;;5066487;28;20081;-62
2023/04/17 08:33:26;;;;;;;29.27;17.83;;;;;;;;;;5072166;28;20573;-62
2023/04/17 08:35:53;;;;;;;29.83;19.10;;;;;;;;;;5083928;28;20061;-62
2023/04/17 08:38:19;;;;;;;29.98;18.63;;;;;;;;;;5082240;28;20115;-62
2023/04/17 08:40:48;;;;;;;28.00;17.75;;;;;;;;;;5060522;28;20088;-62
2023/04/17 08:43:19;;;;;;;30.20;19.48;;;;;;;;;;5077137;28;20053;-62
2023/04/17 08:45:52;;;;;;;30.58;18.90;;;;;;;;;;5075992;28;20052;-61
2023/04/17 08:48:19;;;;;;;31.30;18.55;;;;;;;;;;5069018;28;20057;-61
2023/04/17 08:50:49;;;;;;;31.65;18.67;;;;;;;;;;5067058;28;20067;-62
2023/04/17 08:53:16;;;;;;;29.92;18.70;;;;;;;;;;5062540;28;20603;-62
2023/04/17 08:55:43;;;;;;;34.28;19.45;;;;;;;;;;5061273;28;20064;-62
2023/04/17 08:58:09;;;;;;;31.95;19.67;;;;;;;;;;5062905;28;20059;-63
2023/04/17 09:00:40;;;;;;;36.70;19.45;;;;;;;;;;5062099;28;20111;-63
2023/04/17 09:03:07;;;;;;;31.80;19.13;;;;;;;;;;5062372;28;20538;-63
2023/04/17 09:05:37;;;;;;;30.33;17.80;;;;;;;;;;5062621;28;20587;-62
2023/04/17 09:08:14;;;;;;;25.08;17.55;;;;;;;;;;5063395;28;20085;-62
2023/04/17 09:10:42;;;;;;;29.08;18.10;;;;;;;;;;5069102;28;20053;-62
2023/04/17 09:13:09;;;;;;;28.67;18.10;;;;;;;;;;5062977;28;20056;-62
2023/04/17 09:15:35;;;;;;;30.02;19.02;;;;;;;;;;5061905;28;20268;-62
2023/04/17 09:18:02;;;;;;;29.90;18.35;;;;;;;;;;5047396;28;20053;-62
2023/04/17 09:20:29;;;;;;;29.55;18.67;;;;;;;;;;5066131;28;20059;-62
2023/04/17 09:23:00;;;;;;;30.23;18.60;;;;;;;;;;5062111;28;20055;-62
2023/04/17 09:25:27;;;;;;;29.63;18.30;;;;;;;;;;5057068;28;20100;-64
2023/04/17 09:28:00;;;;;;;25.45;17.92;;;;;;;;;;5060615;28;20059;-62
2023/04/17 09:30:27;;;;;;;26.95;18.25;;;;;;;;;;5062771;28;20080;-62
2023/04/17 09:33:03;;;;;;;26.90;17.25;;;;;;;;;;5063214;28;20503;-61
2023/04/17 09:35:30;;;;;;;26.05;17.98;;;;;;;;;;5061656;28;20511;-60
2023/04/17 09:37:58;;;;;;;28.38;17.20;;;;;;;;;;5063326;28;20049;-60
2023/04/17 09:40:26;;;;;;;24.40;17.25;;;;;;;;;;5078923;28;20580;-59
2023/04/17 09:42:54;;;;;;;28.90;18.10;;;;;;;;;;5063878;28;20053;-60
2023/04/17 09:45:21;;;;;;;26.67;17.80;;;;;;;;;;5061440;28;20517;-59
2023/04/17 09:47:47;;;;;;;26.80;17.20;;;;;;;;;;5062217;28;20421;-61
2023/04/17 09:50:20;;;;;;;30.00;18.50;;;;;;;;;;5064911;28;20435;-60
2023/04/17 09:52:51;;;;;;;25.98;17.95;;;;;;;;;;5065274;28;20134;-60
2023/04/17 09:55:20;;;;;;;30.70;18.00;;;;;;;;;;5065379;28;20056;-60
2023/04/17 09:57:50;;;;;;;29.63;19.08;;;;;;;;;;5062995;28;20514;-59
2023/04/17 10:00:17;;;;;;;27.55;19.05;;;;;;;;;;5061914;28;20059;-58
2023/04/17 10:02:46;;;;;;;30.75;19.48;;;;;;;;;;5065121;28;22071;-61
2023/04/17 10:05:13;;;;;;;29.95;18.65;;;;;;;;;;5068699;28;20133;-60
2023/04/17 10:07:39;;;;;;;28.33;17.95;;;;;;;;;;5058994;28;20056;-60
2023/04/17 10:10:09;;;;;;;31.33;18.75;;;;;;;;;;5083180;28;20507;-60
2023/04/17 10:12:37;;;;;;;27.05;18.27;;;;;;;;;;5069775;28;20053;-62
2023/04/17 10:15:06;;;;;;;28.20;18.98;;;;;;;;;;5085525;28;20653;-60
2023/04/17 10:17:33;;;;;;;28.48;17.95;;;;;;;;;;5063386;28;20053;-62
2023/04/17 10:20:18;;;;;;;28.00;19.30;;;;;;;;;;5064903;28;20486;-60
2023/04/17 10:22:48;;;;;;;26.50;17.77;;;;;;;;;;5068638;28;20052;-63
2023/04/17 10:25:14;;;;;;;28.27;19.42;;;;;;;;;;5082265;28;20143;-60
2023/04/17 10:27:41;;;;;;;30.33;20.10;;;;;;;;;;5070292;28;20608;-60
2023/04/17 10:30:09;;;;;;;30.30;19.20;;;;;;;;;;5065523;28;20053;-59
2023/04/17 10:32:35;;;;;;;30.25;17.98;;;;;;;;;;5067044;28;20132;-60
2023/04/17 10:35:22;;;;;;;24.20;17.38;;;;;;;;;;5072950;28;20049;-60
2023/04/17 10:37:52;;;;;;;26.50;17.63;;;;;;;;;;5061295;28;20053;-63
2023/04/17 10:40:37;;;;;;;31.42;18.20;;;;;;;;;;5074461;28;20049;-59
2023/04/17 10:43:10;;;;;;;29.48;18.85;;;;;;;;;;5072705;28;20483;-60
2023/04/17 10:45:51;;;;;;;30.88;19.65;;;;;;;;;;5076564;28;20088;-60
2023/04/17 10:48:25;;;;;;;24.00;17.60;;;;;;;;;;5070775;28;20053;-60
2023/04/17 10:50:51;;;;;;;22.95;16.85;;;;;;;;;;5048819;28;20087;-60
2023/04/17 10:53:36;;;;;;;32.03;17.67;;;;;;;;;;5081535;28;20055;-60
2023/04/17 10:56:03;;;;;;;29.02;19.40;;;;;;;;;;5074272;28;20057;-61
2023/04/17 10:58:30;;;;;;;24.48;17.13;;;;;;;;;;5069390;28;20143;-60
2023/04/17 11:01:01;;;;;;;22.13;16.80;;;;;;;;;;5082959;28;20157;-60
2023/04/17 11:03:29;;;;;;;27.92;18.40;;;;;;;;;;5066808;28;20057;-60
2023/04/17 11:05:57;;;;;;;29.67;18.27;;;;;;;;;;5064642;28;20526;-60
2023/04/17 11:08:24;;;;;;;24.90;17.27;;;;;;;;;;5070646;28;20060;-61
2023/04/17 11:10:56;;;;;;;27.52;18.42;;;;;;;;;;5077044;28;20119;-61
2023/04/17 11:13:23;;;;;;;23.75;16.55;;;;;;;;;;5063913;28;20539;-59
2023/04/17 11:15:49;;;;;;;22.20;16.73;;;;;;;;;;5066148;28;20143;-58
2023/04/17 11:18:15;;;;;;;23.27;16.20;;;;;;;;;;5069019;28;20082;-59
2023/04/17 11:20:42;;;;;;;23.70;16.83;;;;;;;;;;5082681;28;20431;-60
2023/04/17 11:23:08;;;;;;;24.30;17.40;;;;;;;;;;5070283;28;20578;-59
2023/04/17 11:25:36;;;;;;;26.10;17.20;;;;;;;;;;5066480;28;20144;-61
2023/04/17 11:28:04;;;;;;;19.77;15.13;;;;;;;;;;5064311;28;20048;-60
2023/04/17 11:30:31;;;;;;;25.35;15.93;;;;;;;;;;5071671;28;20582;-60
2023/04/17 11:32:58;;;;;;;21.63;15.80;;;;;;;;;;5065365;28;20059;-60
2023/04/17 11:35:30;;;;;;;25.05;15.25;;;;;;;;;;5044189;28;20530;-60
2023/04/17 11:38:25;;;;;;;25.70;15.63;;;;;;;;;;5063200;28;20080;-60
2023/04/17 11:40:53;;;;;;;21.00;15.02;;;;;;;;;;5067430;28;20149;-60
2023/04/17 11:43:20;;;;;;;20.83;16.13;;;;;;;;;;5076438;28;20486;-60
2023/04/17 11:45:48;;;;;;;19.60;14.75;;;;;;;;;;5069551;28;20048;-58
2023/04/17 11:48:16;;;;;;;18.80;13.75;;;;;;;;;;5074725;28;20494;-61
2023/04/17 11:50:42;;;;;;;18.58;14.95;;;;;;;;;;5070382;28;20634;-60
2023/04/17 11:53:11;;;;;;;21.40;16.73;;;;;;;;;;5065869;28;20610;-60
2023/04/17 11:55:38;;;;;;;20.10;14.88;;;;;;;;;;5064012;28;20557;-60
2023/04/17 11:58:06;;;;;;;19.05;14.82;;;;;;;;;;5074840;28;20052;-59
2023/04/17 12:00:33;;;;;;;20.85;15.43;;;;;;;;;;5064611;28;20049;-60
2023/04/17 12:03:00;;;;;;;20.20;14.40;;;;;;;;;;5067141;28;20049;-59
2023/04/17 12:05:28;;;;;;;21.60;15.18;;;;;;;;;;5063502;28;20063;-61
2023/04/17 12:08:03;;;;;;;21.85;14.93;;;;;;;;;;5069791;28;20049;-61
2023/04/17 12:10:38;;;;;;;20.55;15.13;;;;;;;;;;5076713;28;20053;-59
2023/04/17 12:13:05;;;;;;;;;;;;;;;;;;5073653;28;20408;-61
2023/04/17 12:15:31;;;;;;;19.25;12.70;;;;;;;;;;5073263;28;43746;-60
2023/04/17 12:17:58;;;;;;;20.85;14.23;;;;;;;;;;5063334;28;20530;-61
2023/04/17 12:20:24;;;;;;;16.13;13.05;;;;;;;;;;5064522;28;20612;-60
2023/04/17 12:22:52;;;;;;;19.08;13.43;;;;;;;;;;5074562;28;20053;-61
2023/04/17 12:25:18;;;;;;;17.80;12.23;;;;;;;;;;5081002;28;20404;-60
2023/04/17 12:27:44;;;;;;;16.83;12.63;;;;;;;;;;5076276;28;20053;-60
2023/04/17 12:30:14;;;;;;;14.90;12.43;;;;;;;;;;5063623;28;20049;-60
2023/04/17 12:32:44;;;;;;;16.33;12.35;;;;;;;;;;5061422;28;20057;-59
2023/04/17 12:35:11;;;;;;;15.98;12.57;;;;;;;;;;5062851;28;20526;-60
2023/04/17 12:37:37;;;;;;;15.48;12.82;;;;;;;;;;5061622;28;20055;-60
2023/04/17 12:40:03;;;;;;;14.73;12.93;;;;;;;;;;5062727;28;20045;-59
2023/04/17 12:42:30;;;;;;;15.27;12.13;;;;;;;;;;5063210;28;20056;-61
2023/04/17 12:45:12;;;;;;;15.10;12.32;;;;;;;;;;5061755;28;20075;-60
2023/04/17 12:47:38;;;;;;;14.23;11.80;;;;;;;;;;5062630;28;20083;-59
2023/04/17 12:50:05;;;;;;;14.75;11.80;;;;;;;;;;5065643;28;20059;-61
2023/04/17 12:52:32;;;;;;;15.50;12.55;;;;;;;;;;5068795;28;20526;-59
2023/04/17 12:54:59;;;;;;;16.55;13.05;;;;;;;;;;5062910;28;20084;-57
2023/04/17 12:57:26;;;;;;;16.42;11.90;;;;;;;;;;5068024;28;20059;-58
2023/04/17 12:59:53;;;;;;;15.18;12.13;;;;;;;;;;5082537;28;20110;-59
2023/04/17 13:02:21;;;;;;;17.50;12.20;;;;;;;;;;5077913;28;20064;-58
2023/04/17 13:04:51;;;;;;;15.43;12.52;;;;;;;;;;5061916;28;20107;-58
2023/04/17 13:07:19;;;;;;;17.42;11.85;;;;;;;;;;5050255;28;20349;-60
2023/04/17 13:09:45;;;;;;;15.32;11.98;;;;;;;;;;5046502;28;20053;-58
2023/04/17 13:12:12;;;;;;;16.38;10.77;;;;;;;;;;5072734;28;20223;-59
2023/04/17 13:14:38;;;;;;;13.90;11.18;;;;;;;;;;5061970;28;20104;-58
2023/04/17 13:17:05;;;;;;;17.25;10.95;;;;;;;;;;5067961;28;20045;-58
2023/04/17 13:19:32;;;;;;;11.40;10.20;;;;;;;;;;5065332;28;20550;-59
2023/04/17 13:21:59;;;;;;;13.90;11.32;;;;;;;;;;5061394;28;20127;-58
2023/04/17 13:24:25;;;;;;;12.13;10.48;;;;;;;;;;5062709;28;20623;-59
2023/04/17 13:26:56;;;;;;;16.30;10.32;;;;;;;;;;5072813;28;20498;-58
2023/04/17 13:29:23;;;;;;;13.35;10.35;;;;;;;;;;5060559;28;20053;-62
2023/04/17 13:31:49;;;;;;;13.55;10.13;;;;;;;;;;5064894;28;20053;-61
2023/04/17 13:34:16;;;;;;;12.52;9.75;;;;;;;;;;5065292;28;20128;-62
2023/04/17 13:36:43;;;;;;;11.95;9.70;;;;;;;;;;5064680;28;20409;-60
2023/04/17 13:39:10;;;;;;;14.50;10.48;;;;;;;;;;5060970;28;20079;-60
2023/04/17 13:41:37;;;;;;;15.00;9.98;;;;;;;;;;5070758;28;20447;-61
2023/04/17 13:44:03;;;;;;;12.85;10.23;;;;;;;;;;5076090;28;20509;-61
2023/04/17 13:46:32;;;;;;;12.60;9.85;;;;;;;;;;5073840;28;20057;-61
2023/04/17 13:48:59;;;;;;;11.60;9.85;;;;;;;;;;5065384;28;20059;-61
2023/04/17 13:51:26;;;;;;;13.38;10.60;;;;;;;;;;5065369;28;20055;-61
2023/04/17 13:53:52;;;;;;;14.68;10.55;;;;;;;;;;5073084;28;20077;-61
2023/04/17 13:56:22;;;;;;;14.85;11.32;;;;;;;;;;5079494;28;20047;-61
2023/04/17 13:58:49;;;;;;;13.80;10.75;;;;;;;;;;5065896;28;20061;-61
2023/04/17 14:01:16;;;;;;;13.32;10.38;;;;;;;;;;5085169;28;20626;-60
2023/04/17 14:03:42;;;;;;;12.80;9.57;;;;;;;;;;5071497;28;20091;-60
2023/04/17 14:06:11;;;;;;;9.90;8.80;;;;;;;;;;5073656;28;20053;-61
2023/04/17 14:08:38;;;;;;;15.05;8.90;;;;;;;;;;5063345;28;20470;-61
2023/04/17 14:11:04;;;;;;;12.93;10.43;;;;;;;;;;5069432;28;20052;-58
2023/04/17 14:13:31;;;;;;;13.93;10.23;;;;;;;;;;5071044;28;20135;-61
2023/04/17 14:15:57;;;;;;;14.63;10.55;;;;;;;;;;5068814;28;20502;-60
2023/04/17 14:18:24;;;;;;;13.80;9.93;;;;;;;;;;5077369;28;20060;-60
2023/04/17 14:20:54;;;;;;;11.68;10.13;;;;;;;;;;5082880;28;20060;-60